Time;durP1;ratioP1;P1;durP2;ratioP2;P2;SDS_P1;SDS_P2;PMS_P1;PMS_P2;Temp;Humidity;BMP_temperature;BMP_pressure;BME280_temperature;BME280_humidity;BME280_pressure;Samples;Min_cycle;Max_cycle;Signal;HPM_P1;HPM_P2
2023/12/19 00:00:06;;;;;;;1.75;1.65;;;9.70;99.90;;;;;;4967991;28;20049;-69
2023/12/19 00:02:31;;;;;;;1.85;1.75;;;9.70;99.90;;;;;;4973484;28;20054;-69
2023/12/19 00:04:57;;;;;;;1.35;1.33;;;9.70;99.90;;;;;;4958720;28;20407;-69
2023/12/19 00:07:22;;;;;;;1.10;1.10;;;9.70;99.90;;;;;;4966927;28;20038;-69
2023/12/19 00:09:49;;;;;;;0.22;0.22;;;9.70;99.90;;;;;;4961399;28;20411;-69
2023/12/19 00:12:15;;;;;;;0.57;0.57;;;9.70;99.90;;;;;;4961575;28;20125;-69
2023/12/19 00:14:40;;;;;;;4.50;2.92;;;9.70;99.90;;;;;;4962388;28;20039;-69
2023/12/19 00:17:06;;;;;;;0.85;0.82;;;9.70;99.90;;;;;;4966011;28;20051;-69
2023/12/19 00:19:32;;;;;;;1.13;0.88;;;9.70;99.90;;;;;;4965351;28;20039;-69
2023/12/19 00:21:57;;;;;;;3.72;2.03;;;9.70;99.90;;;;;;4962455;28;20094;-69
2023/12/19 00:24:23;;;;;;;1.70;1.60;;;9.70;99.90;;;;;;4972724;28;20074;-69
2023/12/19 00:26:48;;;;;;;0.52;0.50;;;9.70;99.90;;;;;;4967271;28;20462;-69
2023/12/19 00:29:14;;;;;;;0.95;0.95;;;9.70;99.90;;;;;;4963504;28;20054;-69
2023/12/19 00:31:39;;;;;;;1.55;0.65;;;9.60;99.90;;;;;;4970736;28;20054;-69
2023/12/19 00:34:05;;;;;;;0.20;0.20;;;9.60;99.90;;;;;;4960769;28;20034;-69
2023/12/19 00:36:30;;;;;;;0.30;0.30;;;9.60;99.90;;;;;;4959494;28;20134;-69
2023/12/19 00:38:56;;;;;;;0.80;0.80;;;9.60;99.90;;;;;;4966144;28;20051;-69
2023/12/19 00:41:22;;;;;;;1.45;1.33;;;9.70;99.90;;;;;;4969767;28;20051;-69
2023/12/19 00:43:47;;;;;;;0.30;0.30;;;9.70;99.90;;;;;;4963255;28;20039;-69
2023/12/19 00:46:13;;;;;;;0.50;0.50;;;9.70;99.90;;;;;;4970212;28;20055;-70
2023/12/19 00:48:39;;;;;;;2.88;1.05;;;9.70;99.90;;;;;;4959640;28;20395;-69
2023/12/19 00:51:10;;;;;;;0.50;0.50;;;9.70;99.90;;;;;;4960385;28;20085;-69
2023/12/19 00:53:36;;;;;;;0.68;0.68;;;9.70;99.90;;;;;;4964356;28;20043;-69
2023/12/19 00:56:01;;;;;;;1.65;1.55;;;9.70;99.90;;;;;;4967908;28;20513;-69
2023/12/19 00:58:27;;;;;;;0.20;0.20;;;9.70;99.90;;;;;;4960095;28;20147;-69
2023/12/19 01:00:52;;;;;;;0.30;0.30;;;9.70;99.90;;;;;;4966355;28;20046;-69
2023/12/19 01:03:18;;;;;;;0.47;0.47;;;9.70;99.90;;;;;;4967033;28;20032;-69
2023/12/19 01:05:44;;;;;;;0.85;0.85;;;9.70;99.90;;;;;;4961254;28;20039;-70
2023/12/19 01:08:09;;;;;;;0.57;0.57;;;9.70;99.90;;;;;;4963937;28;20522;-70
2023/12/19 01:10:35;;;;;;;0.35;0.35;;;9.60;99.90;;;;;;4979950;28;20587;-71
2023/12/19 01:13:00;;;;;;;0.85;0.85;;;9.60;99.90;;;;;;4963558;28;20042;-71
2023/12/19 01:15:26;;;;;;;0.90;0.77;;;9.60;99.90;;;;;;4965435;28;20047;-70
2023/12/19 01:17:52;;;;;;;0.13;0.13;;;9.70;99.90;;;;;;4969896;28;20051;-71
2023/12/19 01:20:17;;;;;;;2.17;1.60;;;9.60;99.90;;;;;;4961931;28;20047;-70
2023/12/19 01:22:43;;;;;;;0.13;0.13;;;9.60;99.90;;;;;;4964169;28;20054;-70
2023/12/19 01:25:09;;;;;;;0.20;0.20;;;9.70;99.90;;;;;;4968384;28;20478;-70
2023/12/19 01:27:34;;;;;;;0.10;0.10;;;9.60;99.90;;;;;;4960651;28;20047;-71
2023/12/19 01:30:00;;;;;;;0.30;0.30;;;9.60;99.90;;;;;;4972266;28;20083;-71
2023/12/19 01:32:25;;;;;;;0.20;0.20;;;9.60;99.90;;;;;;4963490;28;20047;-71
2023/12/19 01:34:52;;;;;;;0.43;0.43;;;9.50;99.90;;;;;;4966992;28;20045;-71
2023/12/19 01:37:18;;;;;;;0.80;0.80;;;9.50;99.90;;;;;;4964066;28;20182;-70
2023/12/19 01:39:44;;;;;;;0.10;0.10;;;9.40;99.90;;;;;;4965799;28;20129;-71
2023/12/19 01:42:09;;;;;;;0.20;0.20;;;9.30;99.90;;;;;;4964628;28;20050;-71
2023/12/19 01:44:35;;;;;;;0.40;0.40;;;9.30;99.90;;;;;;4968622;28;20478;-71
2023/12/19 01:47:01;;;;;;;0.17;0.17;;;9.30;99.90;;;;;;4955599;28;20079;-71
2023/12/19 01:49:27;;;;;;;0.75;0.75;;;9.20;99.90;;;;;;4969704;28;20047;-71
2023/12/19 01:51:52;;;;;;;1.60;1.25;;;9.30;99.90;;;;;;4958334;28;20114;-71
2023/12/19 01:54:20;;;;;;;0.17;0.17;;;9.20;99.90;;;;;;4973030;28;20035;-71
2023/12/19 01:56:46;;;;;;;0.30;0.30;;;9.20;99.90;;;;;;4968321;28;20042;-71
2023/12/19 01:59:13;;;;;;;0.63;0.63;;;9.20;99.90;;;;;;4960670;28;20041;-71
2023/12/19 02:01:39;;;;;;;0.43;0.43;;;9.20;99.90;;;;;;4970035;28;20874;-70
2023/12/19 02:04:05;;;;;;;0.85;0.82;;;9.20;99.90;;;;;;4958646;28;20058;-72
2023/12/19 02:06:34;;;;;;;0.20;0.20;;;9.20;99.90;;;;;;4962046;28;20047;-72
2023/12/19 02:09:01;;;;;;;0.35;0.35;;;9.20;99.90;;;;;;4959703;28;20395;-71
2023/12/19 02:11:27;;;;;;;3.72;2.47;;;9.20;99.90;;;;;;4961952;28;20130;-72
2023/12/19 02:13:53;;;;;;;1.55;1.10;;;9.10;99.90;;;;;;4967049;28;20065;-72
2023/12/19 02:16:19;;;;;;;0.30;0.30;;;9.10;99.90;;;;;;4957970;28;20071;-72
2023/12/19 02:18:58;;;;;;;0.10;0.10;;;9.10;99.90;;;;;;4971234;28;20082;-72
2023/12/19 02:21:24;;;;;;;0.52;0.52;;;9.10;99.90;;;;;;4970965;28;20647;-71
2023/12/19 02:23:49;;;;;;;0.32;0.32;;;9.10;99.90;;;;;;4966177;28;20047;-71
2023/12/19 02:26:15;;;;;;;0.30;0.30;;;9.10;99.90;;;;;;4969863;28;20125;-71
2023/12/19 02:28:41;;;;;;;0.15;0.15;;;9.10;99.90;;;;;;4964475;28;20039;-71
2023/12/19 02:31:06;;;;;;;0.30;0.30;;;9.10;99.90;;;;;;4961826;28;20398;-72
2023/12/19 02:33:32;;;;;;;0.40;0.40;;;9.10;99.90;;;;;;4961603;28;20414;-71
2023/12/19 02:35:57;;;;;;;0.10;0.10;;;9.10;99.90;;;;;;4964558;28;20093;-71
2023/12/19 02:38:23;;;;;;;0.45;0.40;;;9.10;99.90;;;;;;4970689;28;20097;-72
2023/12/19 02:40:48;;;;;;;0.10;0.10;;;9.10;99.90;;;;;;4966486;28;20072;-72
2023/12/19 02:43:14;;;;;;;0.75;0.75;;;9.10;99.90;;;;;;4970764;28;20074;-71
2023/12/19 02:45:39;;;;;;;2.08;1.08;;;9.10;99.90;;;;;;4968903;28;20070;-71
2023/12/19 02:48:05;;;;;;;0.70;0.70;;;9.10;99.90;;;;;;4967114;28;20047;-71
2023/12/19 02:50:31;;;;;;;0.40;0.40;;;9.10;99.90;;;;;;4968211;28;20099;-71
2023/12/19 02:52:57;;;;;;;0.45;0.45;;;9.10;99.90;;;;;;4978153;28;20042;-71
2023/12/19 02:55:22;;;;;;;0.25;0.25;;;9.10;99.90;;;;;;4967992;28;20038;-71
2023/12/19 02:57:48;;;;;;;0.47;0.47;;;9.10;99.90;;;;;;4965893;28;20494;-71
2023/12/19 03:00:14;;;;;;;4.47;2.20;;;9.10;99.90;;;;;;4973073;28;20055;-71
2023/12/19 03:02:40;;;;;;;0.85;0.85;;;9.10;99.90;;;;;;4965263;28;20051;-72
2023/12/19 03:05:05;;;;;;;0.10;0.10;;;9.10;99.90;;;;;;4966526;28;20039;-74
2023/12/19 03:07:31;;;;;;;0.28;0.28;;;9.10;99.90;;;;;;4970424;28;20046;-75
2023/12/19 03:09:56;;;;;;;0.77;0.77;;;9.10;99.90;;;;;;4965672;28;20053;-74
2023/12/19 03:12:22;;;;;;;0.38;0.38;;;9.10;99.90;;;;;;4970805;28;20046;-74
2023/12/19 03:14:48;;;;;;;0.10;0.10;;;9.10;99.90;;;;;;4969123;28;20113;-74
2023/12/19 03:17:13;;;;;;;0.68;0.68;;;9.10;99.90;;;;;;4965823;28;20491;-74
2023/12/19 03:19:39;;;;;;;0.55;0.55;;;9.10;99.90;;;;;;4967756;28;20049;-74
2023/12/19 03:22:05;;;;;;;1.55;1.45;;;9.00;99.90;;;;;;4971727;28;20542;-73
2023/12/19 03:24:30;;;;;;;2.25;0.73;;;9.10;99.90;;;;;;4963239;28;20042;-73
2023/12/19 03:26:56;;;;;;;0.85;0.85;;;9.10;99.90;;;;;;4965145;28;20462;-73
2023/12/19 03:29:22;;;;;;;0.68;0.68;;;9.00;99.90;;;;;;4967062;28;20082;-73
2023/12/19 03:31:48;;;;;;;0.20;0.20;;;9.10;99.90;;;;;;4969440;28;20109;-73
2023/12/19 03:34:13;;;;;;;2.53;1.55;;;9.00;99.90;;;;;;4972885;28;20101;-73
2023/12/19 03:36:39;;;;;;;0.40;0.40;;;9.00;99.90;;;;;;4959108;28;20495;-74
2023/12/19 03:39:05;;;;;;;0.68;0.68;;;9.00;99.90;;;;;;4965333;28;20101;-73
2023/12/19 03:41:30;;;;;;;0.13;0.13;;;9.00;99.90;;;;;;4959240;28;20122;-73
2023/12/19 03:43:56;;;;;;;0.30;0.30;;;9.00;99.90;;;;;;4961772;28;20035;-73
2023/12/19 03:46:21;;;;;;;0.10;0.10;;;9.00;99.90;;;;;;4971154;28;20042;-73
2023/12/19 03:48:47;;;;;;;0.10;0.10;;;9.00;99.90;;;;;;4962636;28;20039;-73
2023/12/19 03:51:13;;;;;;;0.30;0.30;;;9.00;99.90;;;;;;4974012;28;20046;-73
2023/12/19 03:53:38;;;;;;;0.10;0.10;;;9.00;99.90;;;;;;4963428;28;20478;-73
2023/12/19 03:56:05;;;;;;;0.45;0.45;;;9.00;99.90;;;;;;4960950;28;20502;-73
2023/12/19 03:58:31;;;;;;;0.98;0.65;;;8.90;99.90;;;;;;4963530;28;20046;-73
2023/12/19 04:00:57;;;;;;;0.80;0.77;;;8.90;99.90;;;;;;4972468;28;20047;-73
2023/12/19 04:03:22;;;;;;;0.10;0.10;;;9.00;99.90;;;;;;4966187;28;20494;-73
2023/12/19 04:05:48;;;;;;;1.48;1.33;;;9.00;99.90;;;;;;4961945;28;20303;-73
2023/12/19 04:08:13;;;;;;;0.35;0.35;;;9.00;99.90;;;;;;4956215;28;20043;-73
2023/12/19 04:10:39;;;;;;;0.10;0.10;;;8.90;99.90;;;;;;4961209;28;20038;-73
2023/12/19 04:13:05;;;;;;;0.15;0.15;;;8.90;99.90;;;;;;4970654;28;21814;-73
2023/12/19 04:15:30;;;;;;;0.10;0.10;;;8.90;99.90;;;;;;4955173;28;20051;-73
2023/12/19 04:17:56;;;;;;;0.20;0.20;;;8.90;99.90;;;;;;4964326;28;20074;-73
2023/12/19 04:20:21;;;;;;;0.30;0.30;;;8.90;99.90;;;;;;4964083;28;20051;-73
2023/12/19 04:22:47;;;;;;;0.20;0.20;;;8.90;99.90;;;;;;4964158;28;20359;-73
2023/12/19 04:25:13;;;;;;;0.25;0.25;;;8.90;99.90;;;;;;4964487;28;20129;-73
2023/12/19 04:27:38;;;;;;;0.10;0.10;;;9.00;99.90;;;;;;4960508;28;20035;-73
2023/12/19 04:30:05;;;;;;;1.48;1.38;;;9.00;99.90;;;;;;4960576;28;20055;-73
2023/12/19 04:32:30;;;;;;;1.75;1.65;;;9.00;99.90;;;;;;4968127;28;20037;-73
2023/12/19 04:34:56;;;;;;;0.10;0.10;;;9.00;99.90;;;;;;4969802;28;20046;-73
2023/12/19 04:37:22;;;;;;;0.10;0.10;;;8.90;99.90;;;;;;4954274;28;20062;-73
2023/12/19 04:39:47;;;;;;;1.83;0.82;;;8.90;99.90;;;;;;4966326;28;20065;-74
2023/12/19 04:42:17;;;;;;;0.45;0.45;;;8.90;99.90;;;;;;4996716;28;20087;-74
2023/12/19 04:44:44;;;;;;;0.10;0.10;;;8.90;99.90;;;;;;4959247;28;20043;-74
2023/12/19 04:47:09;;;;;;;0.20;0.20;;;8.90;99.90;;;;;;4965988;28;20050;-74
2023/12/19 04:49:35;;;;;;;0.45;0.25;;;8.90;99.90;;;;;;4979039;28;20042;-73
2023/12/19 04:52:01;;;;;;;0.38;0.38;;;8.90;99.90;;;;;;4960305;28;20462;-73
2023/12/19 04:54:27;;;;;;;0.10;0.10;;;9.00;99.90;;;;;;4967674;28;20121;-74
2023/12/19 04:56:52;;;;;;;0.10;0.10;;;9.00;99.90;;;;;;4969944;28;20057;-72
2023/12/19 04:59:18;;;;;;;0.45;0.45;;;9.00;99.90;;;;;;4962448;28;20094;-74
2023/12/19 05:01:44;;;;;;;0.20;0.20;;;9.00;99.90;;;;;;4969632;28;20035;-74
2023/12/19 05:04:09;;;;;;;0.77;0.77;;;9.00;99.90;;;;;;4959100;28;20463;-74
2023/12/19 05:06:35;;;;;;;0.10;0.10;;;9.00;99.90;;;;;;4967630;28;20449;-73
2023/12/19 05:09:00;;;;;;;0.50;0.50;;;9.00;99.90;;;;;;4963358;28;20047;-73
2023/12/19 05:11:26;;;;;;;0.10;0.10;;;9.00;99.90;;;;;;4961466;28;20053;-74
2023/12/19 05:13:52;;;;;;;0.22;0.22;;;9.00;99.90;;;;;;4962042;28;20092;-73
2023/12/19 05:16:18;;;;;;;0.20;0.20;;;9.00;99.90;;;;;;4967693;28;20089;-73
2023/12/19 05:18:45;;;;;;;0.10;0.10;;;9.00;99.90;;;;;;4968768;28;20046;-74
2023/12/19 05:21:12;;;;;;;0.35;0.35;;;9.00;99.90;;;;;;4968363;28;20294;-73
2023/12/19 05:23:38;;;;;;;0.10;0.10;;;9.00;99.90;;;;;;4962556;28;20038;-73
2023/12/19 05:26:05;;;;;;;0.10;0.10;;;9.00;99.90;;;;;;4968670;28;20042;-73
2023/12/19 05:28:31;;;;;;;0.15;0.15;;;9.00;99.90;;;;;;4968665;28;20043;-73
2023/12/19 05:30:57;;;;;;;0.10;0.10;;;9.00;99.90;;;;;;4967402;28;20505;-73
2023/12/19 05:33:24;;;;;;;0.13;0.13;;;9.00;99.90;;;;;;4966124;28;20045;-74
2023/12/19 05:35:50;;;;;;;0.20;0.20;;;9.00;99.90;;;;;;4955738;28;20114;-73
2023/12/19 05:38:19;;;;;;;0.20;0.20;;;9.00;99.90;;;;;;4962690;28;20214;-74
2023/12/19 05:40:45;;;;;;;0.10;0.10;;;9.10;99.90;;;;;;4967154;28;20082;-74
2023/12/19 05:43:16;;;;;;;0.20;0.20;;;9.10;99.90;;;;;;4970983;28;20039;-74
2023/12/19 05:45:41;;;;;;;0.35;0.35;;;9.10;99.90;;;;;;4958487;28;20042;-74
2023/12/19 05:48:07;;;;;;;0.10;0.10;;;9.10;99.90;;;;;;4969621;28;20056;-74
2023/12/19 05:50:33;;;;;;;0.20;0.20;;;9.20;99.90;;;;;;4959625;28;20103;-74
2023/12/19 05:52:59;;;;;;;0.10;0.10;;;9.20;99.90;;;;;;4970359;28;20046;-73
2023/12/19 05:55:25;;;;;;;0.40;0.40;;;9.20;99.90;;;;;;4956090;28;20039;-74
2023/12/19 05:57:50;;;;;;;0.55;0.55;;;9.20;99.90;;;;;;4969182;28;20062;-73
2023/12/19 06:00:17;;;;;;;0.30;0.30;;;9.20;99.90;;;;;;4967115;28;20070;-73
2023/12/19 06:02:44;;;;;;;0.10;0.10;;;9.20;99.90;;;;;;4963242;28;20418;-73
2023/12/19 06:05:11;;;;;;;0.25;0.25;;;9.20;99.90;;;;;;4960523;28;20538;-73
2023/12/19 06:07:37;;;;;;;0.70;0.65;;;9.20;99.90;;;;;;4959763;28;20550;-73
2023/12/19 06:10:08;;;;;;;0.55;0.55;;;9.30;99.90;;;;;;4968419;28;20199;-74
2023/12/19 06:12:34;;;;;;;0.10;0.10;;;9.30;99.90;;;;;;4965145;28;20035;-74
2023/12/19 06:14:59;;;;;;;0.10;0.10;;;9.30;99.90;;;;;;4967354;28;20050;-73
2023/12/19 06:17:25;;;;;;;0.20;0.20;;;9.30;99.90;;;;;;4970691;28;20097;-73
2023/12/19 06:19:51;;;;;;;0.65;0.65;;;9.40;99.90;;;;;;4973485;28;20047;-74
2023/12/19 06:22:17;;;;;;;1.58;0.55;;;9.40;99.90;;;;;;4970405;28;20054;-74
2023/12/19 06:24:42;;;;;;;0.17;0.17;;;9.40;99.90;;;;;;4974780;28;20116;-74
2023/12/19 06:27:08;;;;;;;0.50;0.43;;;9.50;99.90;;;;;;4968392;28;20436;-74
2023/12/19 06:29:34;;;;;;;0.10;0.10;;;9.50;99.90;;;;;;4958631;28;20059;-74
2023/12/19 06:31:59;;;;;;;0.95;0.77;;;9.50;99.90;;;;;;4968036;28;20042;-74
2023/12/19 06:34:28;;;;;;;0.65;0.65;;;9.50;99.90;;;;;;4967595;28;20086;-74
2023/12/19 06:36:54;;;;;;;0.95;0.95;;;9.50;99.90;;;;;;4966122;28;20108;-74
2023/12/19 06:39:20;;;;;;;0.10;0.10;;;9.50;99.90;;;;;;4968714;28;20046;-74
2023/12/19 06:41:45;;;;;;;0.43;0.35;;;9.50;99.90;;;;;;4968669;28;20046;-74
2023/12/19 06:44:12;;;;;;;0.10;0.10;;;9.50;99.90;;;;;;4964658;28;20061;-74
2023/12/19 06:46:38;;;;;;;0.20;0.20;;;9.50;99.90;;;;;;4970707;28;20129;-74
2023/12/19 06:49:04;;;;;;;0.10;0.10;;;9.50;99.90;;;;;;4967291;28;20118;-73
2023/12/19 06:51:31;;;;;;;0.63;0.63;;;9.50;99.90;;;;;;4963712;28;20070;-73
2023/12/19 06:53:57;;;;;;;0.08;0.08;;;9.50;99.90;;;;;;4964497;28;20059;-73
2023/12/19 06:56:27;;;;;;;0.10;0.10;;;9.50;99.90;;;;;;4961275;28;20038;-74
2023/12/19 06:58:53;;;;;;;0.10;0.10;;;9.50;99.90;;;;;;4968895;28;20053;-73
2023/12/19 07:01:18;;;;;;;0.10;0.10;;;9.50;99.90;;;;;;4969741;28;20043;-73
2023/12/19 07:03:44;;;;;;;0.10;0.10;;;9.50;99.90;;;;;;4960320;28;20050;-74
2023/12/19 07:06:14;;;;;;;0.10;0.10;;;9.50;99.90;;;;;;4962163;28;20058;-74
2023/12/19 07:08:40;;;;;;;0.40;0.40;;;9.50;99.90;;;;;;4980365;28;20038;-73
2023/12/19 07:11:05;;;;;;;0.40;0.40;;;9.50;99.90;;;;;;4968060;28;20546;-73
2023/12/19 07:13:32;;;;;;;0.20;0.20;;;9.50;99.90;;;;;;4967982;28;20053;-74
2023/12/19 07:15:58;;;;;;;0.10;0.10;;;9.50;99.90;;;;;;4960589;28;20082;-73
2023/12/19 07:18:23;;;;;;;0.28;0.25;;;9.60;99.90;;;;;;4964437;28;20126;-73
2023/12/19 07:20:49;;;;;;;1.65;0.50;;;9.50;99.90;;;;;;4967561;28;20502;-74
2023/12/19 07:23:15;;;;;;;0.43;0.43;;;9.50;99.90;;;;;;4965464;28;20149;-74
2023/12/19 07:25:41;;;;;;;1.27;0.52;;;9.50;99.90;;;;;;4972307;28;20083;-73
2023/12/19 07:28:07;;;;;;;0.10;0.10;;;9.60;99.90;;;;;;4969683;28;20058;-75
2023/12/19 07:30:32;;;;;;;0.10;0.10;;;9.60;99.90;;;;;;4959031;28;20102;-75
2023/12/19 07:33:01;;;;;;;0.00;0.00;;;9.60;99.90;;;;;;4961756;28;20082;-75
2023/12/19 07:35:26;;;;;;;0.10;0.10;;;9.60;99.90;;;;;;4962166;28;20505;-75
2023/12/19 07:37:52;;;;;;;0.40;0.40;;;9.60;99.90;;;;;;4963846;28;20105;-75
2023/12/19 07:40:17;;;;;;;1.17;0.57;;;9.60;99.90;;;;;;4975183;28;20058;-75
2023/12/19 07:42:44;;;;;;;0.10;0.10;;;9.60;99.90;;;;;;4964770;28;20475;-75
2023/12/19 07:45:10;;;;;;;0.20;0.20;;;9.60;99.90;;;;;;4970515;28;20074;-75
2023/12/19 07:47:36;;;;;;;0.03;0.03;;;9.60;99.90;;;;;;4957741;28;20043;-75
2023/12/19 07:50:03;;;;;;;0.75;0.75;;;9.60;99.90;;;;;;4965434;28;20046;-75
2023/12/19 07:52:28;;;;;;;1.90;0.90;;;9.60;99.90;;;;;;4970416;28;20043;-75
2023/12/19 07:54:54;;;;;;;0.10;0.10;;;9.60;99.90;;;;;;4968943;28;20557;-74
2023/12/19 07:57:20;;;;;;;0.10;0.10;;;9.60;99.90;;;;;;4964096;28;20051;-75
2023/12/19 07:59:46;;;;;;;0.13;0.13;;;9.60;99.90;;;;;;4968637;28;20094;-75
2023/12/19 08:02:12;;;;;;;0.40;0.40;;;9.60;99.90;;;;;;4958590;28;20046;-75
2023/12/19 08:04:38;;;;;;;0.30;0.30;;;9.60;99.90;;;;;;4954844;28;20482;-75
2023/12/19 08:07:04;;;;;;;0.25;0.20;;;9.60;99.90;;;;;;4965251;28;20051;-74
2023/12/19 08:09:30;;;;;;;0.15;0.15;;;9.60;99.90;;;;;;4969389;28;20545;-75
2023/12/19 08:11:59;;;;;;;0.22;0.22;;;9.60;99.90;;;;;;4966783;28;20051;-74
2023/12/19 08:14:24;;;;;;;0.20;0.20;;;9.60;99.90;;;;;;4964798;28;20075;-75
2023/12/19 08:16:50;;;;;;;0.10;0.10;;;9.60;99.90;;;;;;4961992;28;20533;-75
2023/12/19 08:19:18;;;;;;;0.75;0.75;;;9.60;99.90;;;;;;4965821;28;20039;-74
2023/12/19 08:21:51;;;;;;;0.38;0.20;;;9.60;99.90;;;;;;4968859;28;20545;-75
2023/12/19 08:24:17;;;;;;;0.10;0.10;;;9.60;99.90;;;;;;4960448;28;20038;-75
2023/12/19 08:26:50;;;;;;;0.10;0.10;;;9.60;99.90;;;;;;4965691;28;20505;-75
2023/12/19 08:29:16;;;;;;;0.73;0.73;;;9.70;99.90;;;;;;4969311;28;20385;-75
2023/12/19 08:31:46;;;;;;;0.10;0.10;;;9.70;99.90;;;;;;4952408;28;20113;-75
2023/12/19 08:34:11;;;;;;;0.00;0.00;;;9.70;99.90;;;;;;4961044;28;20534;-76
2023/12/19 08:36:37;;;;;;;0.10;0.10;;;9.70;99.90;;;;;;4957501;28;20126;-76
2023/12/19 08:39:07;;;;;;;0.08;0.08;;;9.70;99.90;;;;;;4969107;28;20196;-76
2023/12/19 08:41:33;;;;;;;0.17;0.17;;;9.70;99.90;;;;;;4964082;28;20122;-75
2023/12/19 08:43:58;;;;;;;0.40;0.40;;;9.70;99.90;;;;;;4970015;28;20126;-77
2023/12/19 08:46:24;;;;;;;0.25;0.25;;;9.70;99.90;;;;;;4968439;28;20109;-77
2023/12/19 08:48:52;;;;;;;0.00;0.00;;;9.70;99.90;;;;;;4955318;28;20410;-76
2023/12/19 08:51:18;;;;;;;0.20;0.20;;;9.80;99.90;;;;;;4964919;28;20117;-76
2023/12/19 08:53:43;;;;;;;0.10;0.10;;;9.80;99.90;;;;;;4972368;28;20031;-75
2023/12/19 08:56:09;;;;;;;0.17;0.17;;;9.80;99.90;;;;;;4963633;28;20043;-76
2023/12/19 08:58:35;;;;;;;0.10;0.10;;;9.80;99.90;;;;;;4962578;28;20449;-75
2023/12/19 09:01:00;;;;;;;16.88;1.08;;;9.80;99.90;;;;;;4971008;28;20051;-74
2023/12/19 09:03:26;;;;;;;0.20;0.20;;;9.80;99.90;;;;;;4961517;28;20486;-74
2023/12/19 09:05:51;;;;;;;0.40;0.40;;;9.80;99.90;;;;;;4966390;28;20065;-74
2023/12/19 09:08:17;;;;;;;0.68;0.68;;;9.80;99.90;;;;;;4962964;28;20054;-73
2023/12/19 09:10:42;;;;;;;1.10;1.05;;;9.80;99.90;;;;;;4958815;28;20047;-72
2023/12/19 09:13:09;;;;;;;0.43;0.43;;;9.80;99.90;;;;;;4965760;28;20193;-71
2023/12/19 09:15:35;;;;;;;0.20;0.20;;;9.80;99.90;;;;;;4963481;28;20073;-73
2023/12/19 09:18:02;;;;;;;0.10;0.10;;;9.80;99.90;;;;;;4964320;28;20047;-73
2023/12/19 09:20:29;;;;;;;0.15;0.15;;;9.80;99.90;;;;;;4970893;28;20090;-73
2023/12/19 09:22:54;;;;;;;0.30;0.30;;;9.80;99.90;;;;;;4972935;28;20054;-73
2023/12/19 09:25:20;;;;;;;0.70;0.57;;;9.90;99.90;;;;;;4966939;28;20047;-73
2023/12/19 09:27:46;;;;;;;0.00;0.00;;;9.90;99.90;;;;;;4965147;28;20090;-73
2023/12/19 09:30:12;;;;;;;0.00;0.00;;;9.90;99.90;;;;;;4966388;28;20529;-72
2023/12/19 09:32:40;;;;;;;0.10;0.10;;;9.90;99.90;;;;;;4962410;28;20514;-72
2023/12/19 09:35:06;;;;;;;0.00;0.00;;;10.00;99.90;;;;;;4967125;28;20051;-72
2023/12/19 09:37:32;;;;;;;0.40;0.40;;;10.00;99.90;;;;;;4970414;28;20057;-72
2023/12/19 09:39:58;;;;;;;0.10;0.10;;;10.00;99.90;;;;;;4964931;28;20038;-72
2023/12/19 09:42:23;;;;;;;0.10;0.10;;;10.00;99.90;;;;;;4967046;28;20419;-72
2023/12/19 09:44:49;;;;;;;0.10;0.10;;;10.00;99.90;;;;;;4973309;28;20054;-73
2023/12/19 09:47:23;;;;;;;0.98;0.98;;;10.00;99.90;;;;;;4963359;28;20039;-74
2023/12/19 09:49:52;;;;;;;0.10;0.10;;;10.10;99.90;;;;;;4967838;28;20129;-74
2023/12/19 09:52:22;;;;;;;0.10;0.10;;;10.10;99.90;;;;;;4961934;28;20039;-74
2023/12/19 09:54:50;;;;;;;0.45;0.45;;;10.10;99.90;;;;;;4957913;28;20149;-74
2023/12/19 09:57:17;;;;;;;0.32;0.32;;;10.10;99.90;;;;;;4959418;28;20061;-74
2023/12/19 09:59:45;;;;;;;0.10;0.10;;;10.20;99.90;;;;;;4970915;28;20556;-74
2023/12/19 10:02:11;;;;;;;0.00;0.00;;;10.20;99.90;;;;;;4971577;28;20097;-74
2023/12/19 10:04:37;;;;;;;0.10;0.10;;;10.30;99.90;;;;;;4962537;28;20050;-75
2023/12/19 10:07:04;;;;;;;0.05;0.05;;;10.30;99.90;;;;;;4970647;28;20043;-75
2023/12/19 10:09:30;;;;;;;0.10;0.10;;;10.30;99.90;;;;;;4972574;28;20119;-75
2023/12/19 10:12:12;;;;;;;0.10;0.10;;;10.30;99.90;;;;;;4972812;28;20054;-75
2023/12/19 10:14:38;;;;;;;0.10;0.10;;;10.30;99.90;;;;;;4954473;28;20121;-75
2023/12/19 10:17:05;;;;;;;0.10;0.10;;;10.30;99.90;;;;;;4969407;28;20589;-75
2023/12/19 10:19:34;;;;;;;0.10;0.10;;;10.30;99.90;;;;;;4961941;28;20062;-75
2023/12/19 10:22:14;;;;;;;0.30;0.30;;;10.30;99.90;;;;;;4969104;28;20434;-74
2023/12/19 10:24:40;;;;;;;0.10;0.10;;;10.30;99.90;;;;;;4957774;28;20043;-74
2023/12/19 10:27:06;;;;;;;0.52;0.43;;;10.40;99.90;;;;;;4971472;28;20077;-74
2023/12/19 10:29:40;;;;;;;0.32;0.32;;;10.40;99.90;;;;;;4970849;28;20075;-74
2023/12/19 10:32:16;;;;;;;;;;;10.40;99.90;;;;;;4959013;28;20039;-72
2023/12/19 10:34:43;;;;;;;0.00;0.00;;;10.40;99.90;;;;;;4962780;28;19921;-72
2023/12/19 10:37:10;;;;;;;0.00;0.00;;;10.40;99.90;;;;;;4969012;28;20137;-73
2023/12/19 10:39:36;;;;;;;0.10;0.10;;;10.40;99.90;;;;;;4965420;28;20051;-75
2023/12/19 10:42:06;;;;;;;0.10;0.10;;;10.40;99.90;;;;;;4962225;28;20053;-75
2023/12/19 10:44:33;;;;;;;0.10;0.10;;;10.50;99.90;;;;;;4960869;28;20055;-75
2023/12/19 10:47:03;;;;;;;0.00;0.00;;;10.50;99.90;;;;;;4966241;28;20486;-75
2023/12/19 10:49:29;;;;;;;0.10;0.10;;;10.50;99.90;;;;;;4964178;28;20055;-75
2023/12/19 10:51:57;;;;;;;0.10;0.10;;;10.50;99.90;;;;;;4974338;28;20078;-75
2023/12/19 10:54:25;;;;;;;0.10;0.10;;;10.50;99.90;;;;;;4976389;28;20811;-74
2023/12/19 10:57:12;;;;;;;0.00;0.00;;;10.60;99.90;;;;;;4959712;28;20125;-75
2023/12/19 10:59:50;;;;;;;0.10;0.10;;;10.50;99.90;;;;;;4963852;28;20050;-74
2023/12/19 11:02:32;;;;;;;0.20;0.20;;;10.50;99.90;;;;;;4958815;28;20441;-74
2023/12/19 11:05:20;;;;;;;0.13;0.13;;;10.50;99.90;;;;;;4958731;28;20039;-74
2023/12/19 11:07:49;;;;;;;0.00;0.00;;;10.60;99.90;;;;;;4963079;28;20054;-74
2023/12/19 11:10:17;;;;;;;0.10;0.10;;;10.60;99.90;;;;;;4975884;28;20058;-74
2023/12/19 11:12:45;;;;;;;0.10;0.10;;;10.60;99.90;;;;;;4974323;28;20058;-74
2023/12/19 11:15:11;;;;;;;0.10;0.10;;;10.60;99.90;;;;;;4968880;28;20043;-74
2023/12/19 11:17:37;;;;;;;0.10;0.10;;;10.60;99.90;;;;;;4963220;28;20054;-75
2023/12/19 11:20:05;;;;;;;1.63;0.93;;;10.60;99.90;;;;;;4965757;28;20047;-75
2023/12/19 11:22:59;;;;;;;0.10;0.10;;;10.60;99.90;;;;;;4981353;28;20470;-75
2023/12/19 11:25:30;;;;;;;0.22;0.22;;;10.60;99.90;;;;;;4958534;28;20055;-75
2023/12/19 11:28:01;;;;;;;0.10;0.10;;;10.60;99.90;;;;;;4965021;28;20039;-75
2023/12/19 11:30:45;;;;;;;0.08;0.08;;;10.50;99.90;;;;;;4970291;28;20089;-75
2023/12/19 11:33:13;;;;;;;0.10;0.10;;;10.50;99.90;;;;;;4971547;28;20046;-74
2023/12/19 11:35:39;;;;;;;0.30;0.30;;;10.50;99.90;;;;;;4967739;28;20047;-74
2023/12/19 11:38:14;;;;;;;0.10;0.10;;;10.50;99.90;;;;;;4960356;28;20061;-74
2023/12/19 11:40:49;;;;;;;0.00;0.00;;;10.50;99.90;;;;;;4968153;28;20063;-74
2023/12/19 11:43:27;;;;;;;0.00;0.00;;;10.40;99.90;;;;;;4962138;28;20047;-74
2023/12/19 11:45:58;;;;;;;0.10;0.10;;;10.40;99.90;;;;;;4968842;28;20050;-74
2023/12/19 11:48:37;;;;;;;0.10;0.10;;;10.40;99.90;;;;;;4971621;28;20066;-74
2023/12/19 11:51:04;;;;;;;0.10;0.10;;;10.40;99.90;;;;;;4959169;28;20047;-74
2023/12/19 11:53:30;;;;;;;0.03;0.03;;;10.40;99.90;;;;;;4959756;28;20114;-73
2023/12/19 11:56:08;;;;;;;0.00;0.00;;;10.30;99.90;;;;;;4966749;28;20486;-74
2023/12/19 11:58:35;;;;;;;0.10;0.10;;;10.30;99.90;;;;;;4973832;28;20053;-74
2023/12/19 12:01:02;;;;;;;0.00;0.00;;;10.30;99.90;;;;;;4993059;28;20402;-74
2023/12/19 12:03:28;;;;;;;0.10;0.10;;;10.30;99.90;;;;;;4958848;28;20054;-74
2023/12/19 12:05:54;;;;;;;0.10;0.10;;;10.30;99.90;;;;;;4961227;28;20070;-73
2023/12/19 12:08:21;;;;;;;0.10;0.10;;;10.30;99.90;;;;;;4968653;28;20067;-73
2023/12/19 12:11:07;;;;;;;0.00;0.00;;;10.30;99.90;;;;;;4961973;28;20494;-73
2023/12/19 12:13:35;;;;;;;0.10;0.10;;;10.30;99.90;;;;;;4962003;28;20046;-74
2023/12/19 12:16:02;;;;;;;0.35;0.35;;;10.30;99.90;;;;;;4969324;28;20047;-73
2023/12/19 12:18:30;;;;;;;0.05;0.05;;;10.20;99.90;;;;;;4966659;28;20084;-73
2023/12/19 12:21:07;;;;;;;0.10;0.10;;;10.20;99.90;;;;;;4967368;28;20062;-73
2023/12/19 12:23:33;;;;;;;0.10;0.10;;;10.20;99.90;;;;;;4961542;28;20097;-73
2023/12/19 12:25:58;;;;;;;0.10;0.10;;;10.20;99.90;;;;;;4972346;28;20042;-73
2023/12/19 12:28:28;;;;;;;0.10;0.10;;;10.20;99.90;;;;;;4966470;28;20565;-73
2023/12/19 12:30:59;;;;;;;0.10;0.10;;;10.20;99.90;;;;;;4963965;28;20046;-73
2023/12/19 12:33:26;;;;;;;0.00;0.00;;;10.20;99.90;;;;;;4967366;28;20093;-73
2023/12/19 12:35:52;;;;;;;0.00;0.00;;;10.20;99.90;;;;;;4963885;28;20562;-73
2023/12/19 12:38:19;;;;;;;0.10;0.10;;;10.20;99.90;;;;;;4959465;28;20066;-73
2023/12/19 12:40:59;;;;;;;1.17;1.10;;;10.20;99.90;;;;;;4968820;28;20473;-73
2023/12/19 12:43:43;;;;;;;0.10;0.10;;;10.20;99.90;;;;;;4970438;28;20398;-74
2023/12/19 12:46:14;;;;;;;0.00;0.00;;;10.10;99.90;;;;;;4969773;28;20057;-74
2023/12/19 12:48:44;;;;;;;0.10;0.10;;;10.10;99.90;;;;;;4968496;28;20816;-73
2023/12/19 12:51:10;;;;;;;0.00;0.00;;;10.10;99.90;;;;;;4969712;28;20126;-74
2023/12/19 12:53:36;;;;;;;0.10;0.10;;;10.10;99.90;;;;;;4960225;28;20125;-74